Time;durP1;ratioP1;P1;durP2;ratioP2;P2;SDS_P1;SDS_P2;PMS_P1;PMS_P2;Temp;Humidity;BMP_temperature;BMP_pressure;BME280_temperature;BME280_humidity;BME280_pressure;Samples;Min_cycle;Max_cycle;Signal;HPM_P1;HPM_P2
2021/12/20 00:00:21;;;;;;;6.57;1.20;;;;;;;8.13;100.00;101446.84;6235021;22;20035;-52
2021/12/20 00:03:24;;;;;;;8.00;1.08;;;;;;;8.07;100.00;101445.75;6242586;22;20042;-52
2021/12/20 00:06:27;;;;;;;1.52;0.70;;;;;;;8.17;100.00;101447.59;6243289;22;20027;-52
2021/12/20 00:09:30;;;;;;;1.27;0.63;;;;;;;8.13;100.00;101444.06;6237270;22;20071;-52
2021/12/20 00:12:33;;;;;;;3.47;0.90;;;;;;;8.20;100.00;101443.97;6243142;23;20047;-52
2021/12/20 00:15:36;;;;;;;8.07;0.82;;;;;;;8.28;100.00;101434.34;6242825;22;20103;-51
2021/12/20 00:18:41;;;;;;;5.80;0.52;;;;;;;8.23;100.00;101427.25;6243412;22;20405;-52
2021/12/20 00:21:45;;;;;;;0.85;0.32;;;;;;;8.21;100.00;101428.88;6242656;23;20499;-52
2021/12/20 00:24:48;;;;;;;6.13;1.38;;;;;;;7.93;100.00;101429.31;6243127;22;20031;-52
2021/12/20 00:27:51;;;;;;;3.58;1.27;;;;;;;8.07;100.00;101429.13;6243193;23;20043;-50
2021/12/20 00:30:54;;;;;;;6.43;1.80;;;;;;;8.04;100.00;101429.94;6231240;22;20031;-50
2021/12/20 00:33:57;;;;;;;0.55;0.38;;;;;;;8.03;100.00;101428.38;6231343;22;20031;-50
2021/12/20 00:37:04;;;;;;;3.90;2.05;;;;;;;7.98;100.00;101431.63;6232445;22;20023;-50
2021/12/20 00:40:22;;;;;;;3.28;0.70;;;;;;;8.10;100.00;101425.50;6233306;22;20043;-50
2021/12/20 00:43:26;;;;;;;0.40;0.28;;;;;;;8.14;100.00;101429.00;6242938;22;20364;-50
2021/12/20 00:46:29;;;;;;;3.30;0.77;;;;;;;8.16;100.00;101432.16;6241614;22;20062;-52
2021/12/20 00:49:32;;;;;;;3.10;1.25;;;;;;;8.19;100.00;101437.63;6242576;22;20047;-52
2021/12/20 00:52:35;;;;;;;2.65;1.05;;;;;;;8.15;100.00;101433.34;6243107;22;20027;-51
2021/12/20 00:55:40;;;;;;;2.90;0.85;;;;;;;8.19;100.00;101420.19;6242531;22;20035;-52
2021/12/20 00:58:43;;;;;;;3.00;0.88;;;;;;;8.21;100.00;101417.78;6242637;22;20103;-51
2021/12/20 01:01:46;;;;;;;6.10;1.77;;;;;;;8.18;100.00;101413.09;6242071;22;20038;-51
2021/12/20 01:04:49;;;;;;;3.70;1.48;;;;;;;8.17;100.00;101414.28;6242472;22;20020;-51
2021/12/20 01:07:55;;;;;;;4.53;1.00;;;;;;;8.16;100.00;101412.72;6242620;22;20106;-51
2021/12/20 01:11:00;;;;;;;1.20;0.52;;;;;;;8.15;100.00;101402.81;6212361;22;20046;-51
2021/12/20 01:14:03;;;;;;;1.75;0.75;;;;;;;8.14;100.00;101398.50;6232317;22;20027;-51
2021/12/20 01:17:06;;;;;;;0.10;0.10;;;;;;;8.07;100.00;101395.81;6232897;22;20030;-51
2021/12/20 01:20:10;;;;;;;2.78;1.13;;;;;;;8.19;100.00;101392.44;6232896;22;20027;-51
2021/12/20 01:23:14;;;;;;;3.72;1.38;;;;;;;8.24;100.00;101390.00;6242451;22;20023;-51
2021/12/20 01:26:17;;;;;;;0.57;0.57;;;;;;;8.15;100.00;101391.72;6242665;22;20109;-51
2021/12/20 01:29:20;;;;;;;0.52;0.47;;;;;;;8.10;100.00;101392.22;6242575;22;20023;-51
2021/12/20 01:32:23;;;;;;;7.07;0.88;;;;;;;8.09;100.00;101385.09;6242474;22;20146;-51
2021/12/20 01:35:28;;;;;;;2.72;0.90;;;;;;;8.09;100.00;101383.09;6242267;22;20070;-51
2021/12/20 01:38:31;;;;;;;1.65;0.40;;;;;;;8.14;100.00;101385.38;6241924;22;20047;-51
2021/12/20 01:41:42;;;;;;;0.60;0.50;;;;;;;8.12;100.00;101378.72;6242489;22;20522;-51
2021/12/20 01:44:48;;;;;;;2.05;0.75;;;;;;;8.05;100.00;101381.59;6241974;22;20514;-51
2021/12/20 01:48:02;;;;;;;1.10;0.45;;;;;;;8.04;100.00;101374.47;6241979;22;20027;-52
2021/12/20 01:54:11;;;;;;;4.78;0.45;;;;;;;8.10;100.00;101370.03;6235732;22;20077;-51
2021/12/20 01:57:14;;;;;;;1.17;0.65;;;;;;;8.17;100.00;101369.88;6244761;22;20074;-51
2021/12/20 02:00:23;;;;;;;1.38;0.50;;;;;;;8.12;100.00;101373.16;6244324;22;20023;-51
2021/12/20 02:03:26;;;;;;;2.03;0.60;;;;;;;8.12;100.00;101359.28;6244333;22;20340;-51
2021/12/20 02:06:38;;;;;;;2.33;0.80;;;;;;;8.17;100.00;101359.56;6243518;22;20030;-52
2021/12/20 02:09:40;;;;;;;1.40;0.52;;;;;;;8.19;100.00;101365.47;6243801;22;20064;-51
2021/12/20 02:12:44;;;;;;;0.93;0.63;;;;;;;8.17;100.00;101356.81;6244484;22;20351;-51
2021/12/20 02:15:48;;;;;;;1.15;1.05;;;;;;;8.23;100.00;101355.09;6244313;22;20030;-51
2021/12/20 02:18:51;;;;;;;5.53;0.82;;;;;;;8.21;100.00;101370.59;6244364;22;20176;-51
2021/12/20 02:21:54;;;;;;;1.08;0.55;;;;;;;8.22;100.00;101358.31;6231824;22;20031;-51
2021/12/20 02:24:57;;;;;;;2.45;0.52;;;;;;;8.28;100.00;101356.63;6232136;22;20074;-51
2021/12/20 02:28:12;;;;;;;1.48;0.63;;;;;;;8.30;100.00;101354.22;6233309;22;20095;-51
2021/12/20 02:37:40;;;;;;;2.10;0.57;;;;;;;8.25;100.00;101347.16;6243033;22;20097;-51
2021/12/20 02:40:44;;;;;;;1.75;0.70;;;;;;;8.29;100.00;101353.44;6243771;22;20341;-51
2021/12/20 02:43:54;;;;;;;0.60;0.43;;;;;;;8.29;100.00;101347.88;6243864;22;20103;-51
2021/12/20 02:50:03;;;;;;;0.40;0.30;;;;;;;8.29;100.00;101336.78;6233515;22;20102;-51
2021/12/20 02:53:06;;;;;;;0.50;0.47;;;;;;;8.26;100.00;101342.41;6234335;22;20027;-51
2021/12/20 02:56:09;;;;;;;3.35;0.60;;;;;;;8.29;100.00;101352.66;6234855;22;20337;-51
2021/12/20 02:59:13;;;;;;;2.17;1.35;;;;;;;8.25;100.00;101346.38;6243723;22;20337;-51
2021/12/20 03:02:18;;;;;;;1.80;0.68;;;;;;;8.16;100.00;101338.59;6242904;22;20050;-51
2021/12/20 03:05:21;;;;;;;3.00;0.75;;;;;;;8.18;100.00;101335.38;6244031;22;20054;-51
2021/12/20 03:08:24;;;;;;;3.60;1.23;;;;;;;8.24;100.00;101344.78;6243608;22;20106;-51
2021/12/20 03:11:27;;;;;;;1.05;0.38;;;;;;;8.23;100.00;101332.09;6244141;22;20027;-51
2021/12/20 03:14:42;;;;;;;1.17;0.40;;;;;;;8.22;100.00;101322.22;6243188;22;20380;-52
2021/12/20 03:17:45;;;;;;;0.82;0.60;;;;;;;8.23;100.00;101326.56;6243469;22;20052;-51
2021/12/20 03:20:48;;;;;;;4.30;1.35;;;;;;;8.23;100.00;101321.00;6223479;22;20034;-51
2021/12/20 03:23:51;;;;;;;4.85;0.40;;;;;;;8.25;100.00;101319.41;6243705;22;20023;-51
2021/12/20 03:26:54;;;;;;;0.40;0.35;;;;;;;8.23;100.00;101326.56;6231587;22;20404;-51
2021/12/20 03:29:58;;;;;;;0.20;0.20;;;;;;;8.28;100.00;101317.78;6231722;22;20074;-51
2021/12/20 03:33:00;;;;;;;0.82;0.55;;;;;;;8.25;100.00;101307.53;6214120;22;20080;-51
2021/12/20 03:36:04;;;;;;;3.03;0.55;;;;;;;8.26;100.00;101304.34;6232093;22;20107;-51
2021/12/20 03:39:08;;;;;;;0.10;0.10;;;;;;;8.29;100.00;101299.94;6233492;22;20070;-51
2021/12/20 03:42:12;;;;;;;3.72;0.55;;;;;;;8.35;100.00;101292.69;6234966;22;20073;-51
2021/12/20 03:45:15;;;;;;;0.40;0.40;;;;;;;8.34;100.00;101293.88;6243729;22;20089;-51
2021/12/20 03:48:18;;;;;;;0.20;0.20;;;;;;;8.35;100.00;101287.13;6243810;22;20086;-51
2021/12/20 03:51:21;;;;;;;2.55;0.17;;;;;;;8.31;100.00;101292.75;6242811;22;20031;-51
2021/12/20 03:54:24;;;;;;;0.90;0.57;;;;;;;8.32;100.00;101290.75;6243613;22;20074;-51
2021/12/20 03:57:27;;;;;;;0.85;0.30;;;;;;;8.42;100.00;101289.00;6243424;22;20046;-51
2021/12/20 04:00:30;;;;;;;0.20;0.10;;;;;;;8.43;100.00;101285.78;6243042;22;20341;-51
2021/12/20 04:03:35;;;;;;;4.00;1.15;;;;;;;8.40;100.00;101281.09;6243000;22;20051;-52
2021/12/20 04:06:37;;;;;;;1.52;0.35;;;;;;;8.40;100.00;101283.88;6243019;22;20475;-51
2021/12/20 04:09:40;;;;;;;0.63;0.63;;;;;;;8.50;100.00;101282.88;6243223;22;20077;-52
2021/12/20 04:12:44;;;;;;;0.40;0.20;;;;;;;8.45;100.00;101277.81;6243325;22;20074;-51
2021/12/20 04:15:47;;;;;;;1.52;0.70;;;;;;;8.51;100.00;101280.88;6242658;22;20106;-51
2021/12/20 04:18:50;;;;;;;3.97;0.35;;;;;;;8.50;100.00;101279.31;6243176;22;20337;-51
2021/12/20 04:21:53;;;;;;;0.30;0.30;;;;;;;8.53;100.00;101273.69;6230491;22;20394;-51
2021/12/20 04:24:56;;;;;;;5.93;0.63;;;;;;;8.51;100.00;101278.09;6231159;22;20018;-51
2021/12/20 04:27:59;;;;;;;1.15;0.50;;;;;;;8.51;100.00;101284.41;6232189;22;20027;-51
2021/12/20 04:31:02;;;;;;;2.05;0.47;;;;;;;8.47;100.00;101267.06;6214365;22;20583;-51
2021/12/20 04:34:05;;;;;;;0.98;0.73;;;;;;;8.48;100.00;101281.72;6233038;22;20031;-51
2021/12/20 04:37:09;;;;;;;0.73;0.73;;;;;;;8.51;100.00;101267.75;6233739;22;20027;-56
2021/12/20 04:40:17;;;;;;;0.82;0.40;;;;;;;8.50;100.00;101269.00;6234134;22;20027;-51
2021/12/20 04:43:21;;;;;;;0.13;0.13;;;;;;;8.48;100.00;101271.41;6242797;22;20023;-51
2021/12/20 04:46:24;;;;;;;2.05;0.25;;;;;;;8.49;100.00;101256.31;6243002;22;20103;-52
2021/12/20 04:49:27;;;;;;;1.67;0.82;;;;;;;8.41;100.00;101260.44;6242868;22;20042;-51
2021/12/20 04:52:30;;;;;;;1.05;0.63;;;;;;;8.37;100.00;101260.53;6237187;22;20096;-51
2021/12/20 04:55:33;;;;;;;1.58;0.30;;;;;;;8.50;100.00;101254.31;6242348;22;20023;-51
2021/12/20 04:58:36;;;;;;;0.20;0.20;;;;;;;8.53;100.00;101268.16;6242943;22;20395;-51
2021/12/20 05:01:39;;;;;;;0.30;0.25;;;;;;;8.62;100.00;101260.00;6242652;23;20070;-51
2021/12/20 05:04:42;;;;;;;0.43;0.32;;;;;;;8.64;100.00;101248.50;6242522;23;20027;-52
2021/12/20 05:07:46;;;;;;;0.43;0.30;;;;;;;8.67;100.00;101262.28;6242650;23;20054;-51
2021/12/20 05:10:49;;;;;;;3.85;0.60;;;;;;;8.64;100.00;101252.03;6242409;22;20104;-51
2021/12/20 05:13:52;;;;;;;1.38;0.68;;;;;;;8.58;100.00;101239.84;6241911;22;20070;-51
2021/12/20 05:16:55;;;;;;;0.47;0.25;;;;;;;8.55;100.00;101249.06;6230284;22;20074;-51
2021/12/20 05:19:58;;;;;;;2.63;1.50;;;;;;;8.54;100.00;101252.25;6230458;22;20073;-51
2021/12/20 05:23:04;;;;;;;4.68;0.25;;;;;;;8.52;100.00;101255.47;6232012;22;20027;-51
2021/12/20 05:26:07;;;;;;;3.47;0.52;;;;;;;8.56;100.00;101245.06;6232935;22;20519;-51
2021/12/20 05:29:10;;;;;;;0.20;0.20;;;;;;;8.53;100.00;101245.16;6233171;22;20023;-51
2021/12/20 05:32:13;;;;;;;1.55;0.55;;;;;;;8.58;100.00;101234.31;6233924;22;20034;-51
2021/12/20 05:35:18;;;;;;;2.35;0.70;;;;;;;8.59;100.00;101240.66;6242430;22;20486;-51
2021/12/20 05:38:20;;;;;;;1.70;0.22;;;;;;;8.59;100.00;101235.88;6242366;22;20078;-51
2021/12/20 05:41:24;;;;;;;2.75;0.85;;;;;;;8.54;100.00;101230.81;6242450;22;20019;-51
2021/12/20 05:44:27;;;;;;;0.25;0.17;;;;;;;8.61;100.00;101232.69;6241961;22;20484;-51
2021/12/20 05:47:30;;;;;;;1.92;0.38;;;;;;;8.55;100.00;101237.97;6241847;22;20099;-52
2021/12/20 05:50:32;;;;;;;3.55;0.63;;;;;;;8.57;100.00;101226.41;6241421;22;20050;-51
2021/12/20 05:53:36;;;;;;;1.48;0.82;;;;;;;8.61;100.00;101230.69;6241817;22;20376;-51
2021/12/20 05:56:39;;;;;;;4.03;0.70;;;;;;;8.67;100.00;101228.97;6242078;22;20023;-51
2021/12/20 05:59:42;;;;;;;1.85;0.77;;;;;;;8.71;100.00;101228.88;6242417;22;20046;-51
2021/12/20 06:02:49;;;;;;;1.55;0.80;;;;;;;8.72;100.00;101231.25;6241767;22;20024;-51
2021/12/20 06:05:51;;;;;;;0.20;0.20;;;;;;;8.66;100.00;101221.88;6222602;22;20023;-51
2021/12/20 06:08:55;;;;;;;3.42;0.63;;;;;;;8.66;100.00;101226.63;6229677;22;20030;-51
2021/12/20 06:11:59;;;;;;;5.68;1.75;;;;;;;8.64;100.00;101223.50;6231082;22;20095;-51
2021/12/20 06:15:03;;;;;;;0.30;0.30;;;;;;;8.67;100.00;101217.84;6232169;22;20027;-51
2021/12/20 06:18:06;;;;;;;0.47;0.43;;;;;;;8.63;100.00;101224.69;6232701;22;20027;-51
2021/12/20 06:21:09;;;;;;;6.60;1.98;;;;;;;8.61;100.00;101227.13;6232923;22;20023;-51
2021/12/20 06:24:13;;;;;;;5.03;0.90;;;;;;;8.61;100.00;101218.78;6242648;22;20038;-51
2021/12/20 06:27:16;;;;;;;5.75;1.25;;;;;;;8.60;100.00;101212.44;6242336;22;20046;-51
2021/12/20 06:30:19;;;;;;;4.72;1.35;;;;;;;8.59;100.00;101226.78;6241817;22;20059;-51
2021/12/20 06:33:22;;;;;;;3.33;0.75;;;;;;;8.60;100.00;101220.03;6236409;22;20023;-51
2021/12/20 06:36:28;;;;;;;0.57;0.28;;;;;;;8.58;100.00;101219.63;6224332;22;20035;-51
2021/12/20 06:39:32;;;;;;;2.90;0.88;;;;;;;8.62;100.00;101226.69;6243532;22;20058;-52
2021/12/20 06:42:37;;;;;;;6.65;0.50;;;;;;;8.61;100.00;101219.59;6244077;22;20154;-52
2021/12/20 06:45:41;;;;;;;5.20;0.68;;;;;;;8.62;100.00;101210.03;6226374;22;20506;-51
2021/12/20 06:48:44;;;;;;;0.40;0.35;;;;;;;8.60;100.00;101229.09;6244524;22;20027;-51
2021/12/20 06:51:47;;;;;;;3.17;0.43;;;;;;;8.56;100.00;101222.84;6243870;22;20050;-51
2021/12/20 06:54:51;;;;;;;0.85;0.60;;;;;;;8.53;100.00;101223.72;6243729;22;20027;-51
2021/12/20 06:57:54;;;;;;;0.30;0.30;;;;;;;8.42;100.00;101220.38;6213407;22;20395;-51
2021/12/20 07:00:56;;;;;;;4.57;0.75;;;;;;;8.39;100.00;101230.34;6232406;22;20099;-51
2021/12/20 07:04:01;;;;;;;0.57;0.30;;;;;;;8.34;100.00;101230.84;6232920;22;20023;-51
2021/12/20 07:07:04;;;;;;;11.60;0.65;;;;;;;8.29;100.00;101233.34;6233077;22;20023;-51
2021/12/20 07:10:08;;;;;;;2.20;0.88;;;;;;;8.33;100.00;101237.59;6234424;22;20156;-51
2021/12/20 07:13:11;;;;;;;3.95;1.02;;;;;;;8.36;100.00;101230.41;6215884;22;20043;-51
2021/12/20 07:16:14;;;;;;;0.90;0.65;;;;;;;8.35;100.00;101235.19;6243713;22;20024;-51
2021/12/20 07:19:17;;;;;;;0.10;0.10;;;;;;;8.38;100.00;101233.56;6235941;22;20023;-51
2021/12/20 07:22:20;;;;;;;1.10;0.38;;;;;;;8.35;100.00;101243.50;6243635;22;20452;-51
2021/12/20 07:25:23;;;;;;;0.68;0.68;;;;;;;8.36;100.00;101238.72;6243588;22;20047;-52
2021/12/20 07:28:26;;;;;;;0.35;0.20;;;;;;;8.38;100.00;101228.00;6225349;22;20491;-51
2021/12/20 07:31:29;;;;;;;0.80;0.30;;;;;;;8.45;100.00;101236.16;6242581;22;20035;-52
2021/12/20 07:34:32;;;;;;;0.20;0.10;;;;;;;8.50;100.00;101240.44;6243571;22;20472;-51
2021/12/20 07:37:36;;;;;;;2.55;0.82;;;;;;;8.51;100.00;101231.66;6242509;22;20074;-52
2021/12/20 07:40:47;;;;;;;0.10;0.10;;;;;;;8.59;100.00;101227.56;6224666;22;20027;-51
2021/12/20 07:43:51;;;;;;;0.60;0.35;;;;;;;8.65;100.00;101238.94;6242864;22;20043;-51
2021/12/20 07:46:54;;;;;;;1.10;0.52;;;;;;;8.65;100.00;101236.94;6230519;22;20058;-51
2021/12/20 07:49:57;;;;;;;2.38;0.52;;;;;;;8.62;100.00;101237.78;6230891;22;20031;-51
2021/12/20 07:53:01;;;;;;;1.55;0.47;;;;;;;8.58;100.00;101231.53;6232723;22;20023;-51
2021/12/20 07:56:04;;;;;;;0.82;0.63;;;;;;;8.57;100.00;101229.97;6232432;22;20070;-51
2021/12/20 07:59:08;;;;;;;3.75;1.00;;;;;;;8.64;100.00;101235.38;6233661;22;20023;-51
2021/12/20 08:02:11;;;;;;;3.03;1.20;;;;;;;8.67;100.00;101230.94;6234211;22;20050;-51
2021/12/20 08:05:15;;;;;;;4.35;0.73;;;;;;;8.68;100.00;101232.53;6235293;22;20195;-51
2021/12/20 08:08:18;;;;;;;0.30;0.30;;;;;;;8.70;100.00;101236.44;6242677;22;20098;-51
2021/12/20 08:11:21;;;;;;;3.30;0.65;;;;;;;8.72;100.00;101242.34;6236722;22;20070;-52
2021/12/20 08:14:24;;;;;;;1.48;0.88;;;;;;;8.76;100.00;101243.06;6242613;22;20483;-51
2021/12/20 08:28:58;;;;;;;2.75;1.60;;;;;;;8.76;100.00;101231.94;5038309;28;20762;-51
2021/12/20 08:32:02;;;;;;;3.25;1.13;;;;;;;8.81;100.00;101225.09;5022132;28;20052;-51
2021/12/20 08:35:07;;;;;;;0.50;0.50;;;;;;;8.84;100.00;101227.81;5037174;28;20103;-51
2021/12/20 08:38:10;;;;;;;6.43;1.45;;;;;;;8.85;100.00;101229.38;5019657;28;20055;-51
2021/12/20 08:41:13;;;;;;;5.88;1.75;;;;;;;8.89;100.00;101223.72;5025310;28;20195;-51
2021/12/20 08:44:16;;;;;;;5.07;0.75;;;;;;;8.90;100.00;101237.19;5050668;28;20130;-51
2021/12/20 08:47:19;;;;;;;1.40;0.85;;;;;;;8.99;100.00;101234.59;5037611;28;20060;-51
2021/12/20 08:50:23;;;;;;;3.45;1.08;;;;;;;8.91;100.00;101227.66;5023967;28;20055;-51
2021/12/20 08:53:26;;;;;;;5.60;0.45;;;;;;;8.95;100.00;101225.56;5045075;28;20107;-51
2021/12/20 08:56:29;;;;;;;4.18;1.50;;;;;;;8.99;100.00;101222.69;5033461;28;20047;-51
2021/12/20 08:59:32;;;;;;;2.20;0.50;;;;;;;9.04;100.00;101224.97;5059377;28;20171;-51
2021/12/20 09:02:35;;;;;;;0.50;0.50;;;;;;;9.05;100.00;101221.00;5048311;28;20055;-51
2021/12/20 09:05:39;;;;;;;3.08;1.25;;;;;;;9.08;100.00;101223.69;5045190;28;20068;-51
2021/12/20 09:08:42;;;;;;;4.63;1.20;;;;;;;9.07;100.00;101224.88;5017896;28;20141;-51
2021/12/20 09:11:45;;;;;;;0.20;0.20;;;;;;;9.60;100.00;101231.97;5024610;28;20057;-51
2021/12/20 09:14:49;;;;;;;3.80;0.55;;;;;;;9.61;100.00;101227.97;4981615;28;20494;-51
2021/12/20 09:17:53;;;;;;;5.80;1.80;;;;;;;9.72;100.00;101234.03;4988549;28;20108;-51
2021/12/20 09:20:57;;;;;;;9.50;1.13;;;;;;;9.75;100.00;101233.16;5004198;28;20116;-51
2021/12/20 09:24:03;;;;;;;3.67;0.73;;;;;;;9.80;100.00;101229.06;4999955;28;20056;-50
2021/12/20 09:27:07;;;;;;;0.95;0.52;;;;;;;9.49;100.00;101228.66;4990336;28;20591;-51
2021/12/20 09:30:10;;;;;;;3.70;1.05;;;;;;;9.32;100.00;101223.53;4966096;28;20060;-51
2021/12/20 09:33:13;;;;;;;0.60;0.32;;;;;;;9.31;100.00;101230.31;5010662;28;20052;-51
2021/12/20 09:36:16;;;;;;;2.17;0.30;;;;;;;9.31;100.00;101227.53;4997807;28;20044;-51
2021/12/20 09:39:20;;;;;;;1.17;0.52;;;;;;;9.75;100.00;101218.47;5029454;28;20148;-51
2021/12/20 09:42:24;;;;;;;2.35;0.70;;;;;;;9.78;100.00;101225.94;5014948;28;20386;-51
2021/12/20 09:45:27;;;;;;;1.15;0.63;;;;;;;9.83;100.00;101228.22;4967031;28;20442;-51
2021/12/20 09:48:30;;;;;;;0.55;0.40;;;;;;;9.82;100.00;101232.19;4970013;28;20126;-51
2021/12/20 09:51:33;;;;;;;1.23;0.47;;;;;;;9.89;100.00;101226.47;4969057;28;20169;-51
2021/12/20 09:54:38;;;;;;;9.02;1.90;;;;;;;9.97;100.00;101230.59;4967080;28;20101;-51
2021/12/20 09:57:42;;;;;;;23.20;4.40;;;;;;;10.04;100.00;101233.22;4980933;28;20552;-52
2021/12/20 10:00:47;;;;;;;1.50;1.30;;;;;;;9.94;100.00;101231.47;4936461;28;20058;-51
2021/12/20 10:03:53;;;;;;;14.88;1.63;;;;;;;9.96;100.00;101233.84;4990602;28;20454;-51
2021/12/20 10:06:59;;;;;;;2.70;1.55;;;;;;;10.14;100.00;101234.94;4971492;28;20081;-51
2021/12/20 10:10:05;;;;;;;5.22;1.45;;;;;;;10.04;100.00;101224.06;4966606;28;20088;-51
2021/12/20 10:13:39;;;;;;;19.63;4.90;;;;;;;10.05;100.00;101234.00;5018221;28;20072;-51
2021/12/20 10:16:43;;;;;;;7.22;1.10;;;;;;;10.04;100.00;101224.88;5032942;28;20522;-51
2021/12/20 10:19:47;;;;;;;9.63;2.53;;;;;;;10.08;100.00;101227.53;5007058;28;20052;-51
2021/12/20 10:22:52;;;;;;;1.38;0.95;;;;;;;10.06;100.00;101225.19;5018212;28;20064;-51
2021/12/20 10:26:12;;;;;;;2.28;1.58;;;;;;;10.13;100.00;101229.81;5017218;28;20199;-51
2021/12/20 10:29:18;;;;;;;4.47;1.30;;;;;;;10.02;100.00;101229.28;4997818;28;20056;-51
2021/12/20 10:32:41;;;;;;;7.63;1.75;;;;;;;9.99;100.00;101239.31;5015080;28;20134;-51
2021/12/20 10:35:53;;;;;;;1.75;0.63;;;;;;;9.90;100.00;101236.34;5033336;28;20234;-51
2021/12/20 10:38:58;;;;;;;1.08;0.55;;;;;;;10.08;100.00;101241.44;5026723;28;20081;-51
2021/12/20 10:42:19;;;;;;;0.65;0.55;;;;;;;10.11;100.00;101249.75;5024158;28;20488;-51
2021/12/20 10:45:24;;;;;;;4.25;1.52;;;;;;;10.05;100.00;101245.88;5012907;28;20518;-52
2021/12/20 10:48:32;;;;;;;7.13;1.27;;;;;;;10.12;100.00;101239.38;5049181;28;20404;-51
2021/12/20 10:51:40;;;;;;;2.47;0.68;;;;;;;10.07;100.00;101239.91;5050454;28;20107;-51
2021/12/20 10:54:43;;;;;;;3.63;1.33;;;;;;;10.01;100.00;101236.06;5045908;28;20051;-51
2021/12/20 10:57:46;;;;;;;1.90;0.88;;;;;;;9.97;100.00;101240.94;5019812;28;20075;-51
2021/12/20 11:01:16;;;;;;;3.50;0.28;;;;;;;9.97;100.00;101229.81;5018204;28;20494;-51
2021/12/20 11:04:24;;;;;;;0.95;0.63;;;;;;;9.93;100.00;101219.59;4964228;28;20196;-51
2021/12/20 11:10:31;;;;;;;2.58;0.50;;;;;;;9.58;100.00;101222.47;4966872;28;20057;-51
2021/12/20 11:13:38;;;;;;;0.68;0.30;;;;;;;9.89;100.00;101215.31;5023828;28;20409;-51
2021/12/20 11:16:43;;;;;;;3.83;0.65;;;;;;;9.92;100.00;101211.66;4997041;28;20611;-51
2021/12/20 11:19:47;;;;;;;1.50;0.90;;;;;;;9.85;100.00;101211.88;5008931;28;20144;-51
2021/12/20 11:23:01;;;;;;;2.17;0.75;;;;;;;9.93;100.00;101218.78;5026710;28;20148;-51
2021/12/20 11:26:04;;;;;;;0.80;0.60;;;;;;;10.00;100.00;101218.63;4988588;28;20460;-57
2021/12/20 11:29:09;;;;;;;3.72;0.73;;;;;;;10.01;100.00;101220.16;5031445;28;20200;-57
2021/12/20 11:32:13;;;;;;;2.33;0.70;;;;;;;9.94;100.00;101226.69;5009374;28;20600;-57
2021/12/20 11:35:20;;;;;;;3.70;1.00;;;;;;;9.92;100.00;101220.00;5032592;28;20052;-57
2021/12/20 11:38:23;;;;;;;9.32;2.88;;;;;;;9.84;100.00;101218.63;5029328;28;20053;-58
2021/12/20 11:41:28;;;;;;;6.07;1.08;;;;;;;9.89;100.00;101212.53;5031168;28;20064;-57
2021/12/20 11:44:31;;;;;;;9.07;1.98;;;;;;;9.80;100.00;101215.16;5030074;28;20165;-57
2021/12/20 11:47:44;;;;;;;9.75;0.68;;;;;;;9.79;100.00;101214.38;5030348;28;20139;-57
2021/12/20 11:50:47;;;;;;;1.92;0.28;;;;;;;9.77;100.00;101216.03;5030304;28;20056;-57
2021/12/20 11:53:50;;;;;;;3.35;0.90;;;;;;;9.79;100.00;101219.16;5025677;28;20056;-57
2021/12/20 11:56:53;;;;;;;4.15;1.20;;;;;;;9.81;100.00;101216.75;5017575;28;20163;-57
2021/12/20 12:00:02;;;;;;;3.75;0.88;;;;;;;9.79;100.00;101208.03;5030289;28;20115;-57
2021/12/20 12:03:43;;;;;;;1.05;0.65;;;;;;;9.78;100.00;101206.47;5030458;28;20515;-57
2021/12/20 12:06:46;;;;;;;3.20;1.15;;;;;;;9.80;100.00;101209.59;4975697;28;20498;-57
2021/12/20 12:10:06;;;;;;;2.58;0.95;;;;;;;9.78;100.00;101200.91;5030166;28;20420;-57
2021/12/20 12:13:15;;;;;;;9.32;0.65;;;;;;;9.80;100.00;101210.38;5026276;28;20100;-57
2021/12/20 12:16:31;;;;;;;2.90;1.40;;;;;;;9.80;100.00;101204.03;5027945;28;20128;-58
2021/12/20 12:19:40;;;;;;;7.50;0.68;;;;;;;9.83;100.00;101198.38;5029836;28;20401;-58
2021/12/20 12:22:46;;;;;;;3.45;1.60;;;;;;;9.87;100.00;101193.50;5027028;28;20088;-58
2021/12/20 12:25:53;;;;;;;3.60;0.82;;;;;;;9.86;100.00;101185.59;5023186;28;20358;-58
2021/12/20 12:28:58;;;;;;;6.95;0.95;;;;;;;9.52;100.00;101188.09;5015328;28;20461;-58
2021/12/20 12:32:01;;;;;;;0.47;0.47;;;;;;;9.74;100.00;101177.97;5030632;28;20111;-57
2021/12/20 12:35:05;;;;;;;2.03;1.85;;;;;;;9.71;100.00;101185.19;5030655;28;20818;-57
2021/12/20 12:38:49;;;;;;;0.10;0.10;;;;;;;9.80;100.00;101181.78;5029588;28;20172;-57
2021/12/20 12:42:00;;;;;;;0.10;0.10;;;;;;;9.79;100.00;101177.41;5030360;28;20207;-57
2021/12/20 12:45:04;;;;;;;0.52;0.52;;;;;;;9.72;100.00;101169.28;5029919;28;20052;-59
2021/12/20 12:48:40;;;;;;;3.45;0.88;;;;;;;9.71;100.00;101167.72;5029493;28;20052;-57
2021/12/20 12:51:43;;;;;;;4.85;0.30;;;;;;;9.69;100.00;101179.28;5023953;28;20056;-57
2021/12/20 12:54:53;;;;;;;3.50;0.80;;;;;;;9.62;100.00;101175.88;5028611;28;20068;-57
2021/12/20 12:57:58;;;;;;;3.17;0.63;;;;;;;9.54;100.00;101180.09;5030172;28;20090;-57
2021/12/20 13:01:02;;;;;;;0.75;0.28;;;;;;;9.45;100.00;101179.91;5014523;28;20123;-57
2021/12/20 13:04:04;;;;;;;2.30;0.82;;;;;;;9.41;100.00;101173.66;5031938;28;20111;-58
2021/12/20 13:07:07;;;;;;;0.93;0.75;;;;;;;9.28;100.00;101178.34;5033618;28;20091;-58
2021/12/20 13:10:16;;;;;;;6.65;0.75;;;;;;;9.42;100.00;101167.66;5033552;28;20051;-58
2021/12/20 13:13:30;;;;;;;7.95;0.85;;;;;;;9.35;100.00;101167.06;5019709;28;20056;-58
2021/12/20 13:16:35;;;;;;;13.82;0.73;;;;;;;9.29;100.00;101157.69;5033212;28;20103;-58
2021/12/20 13:19:39;;;;;;;0.30;0.30;;;;;;;9.37;100.00;101154.31;5022304;28;20052;-58
2021/12/20 13:22:52;;;;;;;0.32;0.32;;;;;;;9.31;100.00;101149.69;5030420;28;20143;-58
2021/12/20 13:26:01;;;;;;;12.35;0.47;;;;;;;9.32;100.00;101154.81;5033361;28;20060;-58
2021/12/20 13:29:04;;;;;;;12.63;0.90;;;;;;;9.29;100.00;101152.13;5033300;28;20048;-58
2021/12/20 13:32:09;;;;;;;6.32;1.17;;;;;;;8.98;100.00;101152.47;5033377;28;20116;-58
2021/12/20 13:35:19;;;;;;;0.90;0.65;;;;;;;9.18;100.00;101146.06;5018071;28;20087;-58
2021/12/20 13:38:30;;;;;;;0.50;0.50;;;;;;;9.36;100.00;101146.38;5032678;28;20082;-59
2021/12/20 13:41:35;;;;;;;6.07;1.42;;;;;;;9.35;100.00;101148.41;5032789;28;20061;-58
2021/12/20 13:44:38;;;;;;;0.85;0.50;;;;;;;9.22;100.00;101146.75;5015644;28;20623;-58
2021/12/20 13:47:42;;;;;;;2.88;1.65;;;;;;;9.24;100.00;101158.22;5020986;28;20111;-58
2021/12/20 13:50:45;;;;;;;8.57;1.20;;;;;;;9.15;100.00;101154.03;5032609;28;20767;-58
2021/12/20 13:53:49;;;;;;;0.55;0.45;;;;;;;9.06;100.00;101150.31;5033183;28;20057;-58
2021/12/20 13:57:19;;;;;;;1.65;1.10;;;;;;;9.10;100.00;101145.44;5032401;28;20083;-57
2021/12/20 14:00:21;;;;;;;0.45;0.40;;;;;;;9.14;100.00;101146.91;5032960;28;20071;-57
2021/12/20 14:03:25;;;;;;;0.13;0.13;;;;;;;9.02;100.00;101144.84;5012661;28;20133;-57
2021/12/20 14:06:41;;;;;;;0.93;0.32;;;;;;;8.97;100.00;101141.78;5025798;28;20110;-56
2021/12/20 14:10:18;;;;;;;0.75;0.57;;;;;;;8.88;100.00;101128.50;5032625;28;20045;-57
2021/12/20 14:13:26;;;;;;;0.68;0.68;;;;;;;8.97;100.00;101136.22;5030571;28;20099;-58
2021/12/20 14:16:30;;;;;;;0.77;0.77;;;;;;;8.99;100.00;101134.56;5019833;28;20057;-57
2021/12/20 14:19:56;;;;;;;2.50;1.05;;;;;;;8.89;100.00;101130.06;5017667;28;20132;-57
2021/12/20 14:23:00;;;;;;;9.40;0.40;;;;;;;9.01;100.00;101125.81;5032753;28;20056;-57
2021/12/20 14:26:27;;;;;;;0.50;0.50;;;;;;;9.05;100.00;101121.72;5020977;28;20048;-57
2021/12/20 14:29:31;;;;;;;0.63;0.50;;;;;;;8.96;100.00;101123.56;5032065;28;20536;-57
2021/12/20 14:32:43;;;;;;;8.10;1.10;;;;;;;9.04;100.00;101116.59;5029514;28;20064;-57
2021/12/20 14:35:54;;;;;;;0.95;0.40;;;;;;;9.16;100.00;101121.47;5018197;28;20099;-57
2021/12/20 14:39:07;;;;;;;0.28;0.10;;;;;;;9.10;100.00;101118.44;5032084;28;20153;-57
2021/12/20 14:42:10;;;;;;;0.28;0.20;;;;;;;9.12;100.00;101107.66;5032252;28;20096;-57
2021/12/20 14:45:20;;;;;;;6.68;0.77;;;;;;;9.09;100.00;101111.31;5031470;28;20163;-57
2021/12/20 14:48:29;;;;;;;2.63;0.52;;;;;;;9.05;100.00;101105.06;5032187;28;20053;-57